createdAt,value
2022-08-22T00:00:37.682Z,16.06
2022-08-22T00:03:48.992Z,16.09
2022-08-22T00:07:13.053Z,16.16
2022-08-22T00:10:24.981Z,16.08
2022-08-22T00:13:35.589Z,16.02
2022-08-22T00:16:43.811Z,16.00
2022-08-22T00:19:48.882Z,15.96
2022-08-22T00:22:55.765Z,15.91
2022-08-22T00:26:03.041Z,15.87
2022-08-22T00:29:12.149Z,15.83
2022-08-22T00:32:26.663Z,15.84
2022-08-22T00:35:33.171Z,15.79
2022-08-22T00:38:41.385Z,15.72
2022-08-22T00:42:00.701Z,15.65
2022-08-22T00:45:18.346Z,15.60
2022-08-22T00:48:41.105Z,15.58
2022-08-22T00:52:03.630Z,15.57
2022-08-22T00:55:17.534Z,15.59
2022-08-22T00:58:44.728Z,15.59
2022-08-22T01:01:51.722Z,15.53
2022-08-22T01:05:02.490Z,15.53
2022-08-22T01:08:15.934Z,15.50
2022-08-22T01:11:44.840Z,15.54
2022-08-22T01:14:49.771Z,15.50
2022-08-22T01:18:04.675Z,15.43
2022-08-22T01:21:26.519Z,15.40
2022-08-22T01:25:05.723Z,15.41
2022-08-22T01:28:25.835Z,15.34
2022-08-22T01:31:44.968Z,15.30
2022-08-22T01:34:58.565Z,15.29
2022-08-22T01:38:10.035Z,15.50
2022-08-22T01:41:20.326Z,15.58
2022-08-22T01:44:30.181Z,15.45
2022-08-22T01:47:37.658Z,15.42
2022-08-22T01:50:47.692Z,15.51
2022-08-22T01:53:53.832Z,15.53
2022-08-22T01:57:00.873Z,15.51
2022-08-22T02:00:15.620Z,15.41
2022-08-22T02:03:22.445Z,15.33
2022-08-22T02:06:33.111Z,15.42
2022-08-22T02:09:40.082Z,15.46
2022-08-22T02:12:43.319Z,15.45
2022-08-22T02:15:49.877Z,15.45
2022-08-22T02:19:00.975Z,15.51
2022-08-22T02:22:07.254Z,15.45
2022-08-22T02:25:14.023Z,15.35
2022-08-22T02:28:20.340Z,15.25
2022-08-22T02:31:25.944Z,15.18
2022-08-22T02:34:36.908Z,15.11
2022-08-22T02:37:46.031Z,15.06
2022-08-22T02:40:52.074Z,15.04
2022-08-22T02:43:55.483Z,15.02
2022-08-22T02:47:04.025Z,15.08
2022-08-22T02:50:12.217Z,15.17
2022-08-22T02:53:22.092Z,15.31
2022-08-22T02:56:27.240Z,15.33
2022-08-22T02:59:33.395Z,15.35
2022-08-22T03:02:37.033Z,15.41
2022-08-22T03:05:48.509Z,15.47
2022-08-22T03:09:03.602Z,15.47
2022-08-22T03:12:09.423Z,15.33
2022-08-22T03:15:16.663Z,15.28
2022-08-22T03:18:21.564Z,15.26
2022-08-22T03:21:28.009Z,15.28
2022-08-22T03:24:33.913Z,15.29
2022-08-22T03:27:39.110Z,15.24
2022-08-22T03:30:43.277Z,15.16
2022-08-22T03:33:45.639Z,15.15
2022-08-22T03:36:48.323Z,15.11
2022-08-22T03:39:56.306Z,15.08
2022-08-22T03:43:17.213Z,15.08
2022-08-22T03:46:36.553Z,15.00
2022-08-22T03:49:55.615Z,15.00
2022-08-22T03:53:19.097Z,15.02
2022-08-22T03:56:39.866Z,15.12
2022-08-22T03:59:48.868Z,15.15
2022-08-22T04:03:12.130Z,15.07
2022-08-22T04:06:28.539Z,14.93
2022-08-22T04:09:51.494Z,14.88
2022-08-22T04:13:12.729Z,14.85
2022-08-22T04:16:20.836Z,14.83
2022-08-22T04:19:46.545Z,14.77
2022-08-22T04:23:09.908Z,14.69
2022-08-22T04:26:15.873Z,14.62
2022-08-22T04:29:25.057Z,14.55
2022-08-22T04:32:31.235Z,14.57
2022-08-22T04:35:34.366Z,14.57
2022-08-22T04:38:39.406Z,14.55
2022-08-22T04:41:46.735Z,14.54
2022-08-22T04:44:57.655Z,14.53
2022-08-22T04:48:05.127Z,14.54
2022-08-22T04:51:14.491Z,14.53
2022-08-22T04:54:33.014Z,14.55
2022-08-22T04:57:45.590Z,14.56
2022-08-22T05:00:54.640Z,14.57
2022-08-22T05:03:57.451Z,14.62
2022-08-22T05:07:08.505Z,14.66
2022-08-22T05:10:13.159Z,14.70
2022-08-22T05:13:18.411Z,14.71
2022-08-22T05:16:24.702Z,14.74
2022-08-22T05:19:32.285Z,14.76
2022-08-22T05:22:36.815Z,14.76
2022-08-22T05:25:41.558Z,14.82
2022-08-22T05:28:45.535Z,14.89
2022-08-22T05:31:50.502Z,14.93
2022-08-22T05:34:53.860Z,15.01
2022-08-22T05:37:59.327Z,15.07
2022-08-22T05:41:04.458Z,15.13
2022-08-22T05:44:07.995Z,15.15
2022-08-22T05:47:19.778Z,15.21
2022-08-22T05:50:24.928Z,15.28
2022-08-22T05:53:30.816Z,15.34
2022-08-22T05:56:38.980Z,15.39
2022-08-22T05:59:42.834Z,15.47
2022-08-22T06:02:54.679Z,15.49
2022-08-22T06:05:59.846Z,15.57
2022-08-22T06:09:02.718Z,15.60
2022-08-22T06:12:08.473Z,15.71
2022-08-22T06:15:21.025Z,15.81
2022-08-22T06:18:26.256Z,15.92
2022-08-22T06:21:38.606Z,16.01
2022-08-22T06:24:41.567Z,16.11
2022-08-22T06:27:44.915Z,16.25
2022-08-22T06:30:48.029Z,16.34
2022-08-22T06:33:55.155Z,16.41
2022-08-22T06:37:01.972Z,16.46
2022-08-22T06:40:05.147Z,16.49
2022-08-22T06:43:07.166Z,16.54
2022-08-22T06:46:09.415Z,16.56
2022-08-22T06:49:13.348Z,16.55
2022-08-22T06:52:21.348Z,16.53
2022-08-22T06:55:26.416Z,16.59
2022-08-22T06:58:30.852Z,16.64
2022-08-22T07:01:43.671Z,16.70
2022-08-22T07:04:47.874Z,16.79
2022-08-22T07:07:50.379Z,16.88
2022-08-22T07:10:57.586Z,16.92
2022-08-22T07:14:02.550Z,16.95
2022-08-22T07:17:05.649Z,16.95
2022-08-22T07:20:22.592Z,16.98
2022-08-22T07:23:26.680Z,17.08
2022-08-22T07:26:32.260Z,17.16
2022-08-22T07:29:40.998Z,17.23
2022-08-22T07:32:51.555Z,17.36
2022-08-22T07:36:09.097Z,17.54
2022-08-22T07:39:21.494Z,17.69
2022-08-22T07:42:29.766Z,17.80
2022-08-22T07:45:35.194Z,17.83
2022-08-22T07:49:05.924Z,17.93
2022-08-22T07:52:08.336Z,17.96
2022-08-22T07:55:23.112Z,18.10
2022-08-22T07:58:27.300Z,18.24
2022-08-22T08:01:29.803Z,18.29
2022-08-22T08:04:39.475Z,18.35
2022-08-22T08:07:45.591Z,18.38
2022-08-22T08:10:48.650Z,18.42
2022-08-22T08:13:55.130Z,18.49
2022-08-22T08:17:01.122Z,18.58
2022-08-22T08:20:05.497Z,18.65
2022-08-22T08:23:10.627Z,18.74
2022-08-22T08:26:15.932Z,18.83
2022-08-22T08:29:21.132Z,18.89
2022-08-22T08:32:26.424Z,19.00
2022-08-22T08:35:29.318Z,19.17
2022-08-22T08:38:36.024Z,19.33
2022-08-22T08:48:30.728Z,19.72
2022-08-22T08:51:46.497Z,20.07
2022-08-22T08:54:58.090Z,20.23
2022-08-22T08:58:14.958Z,20.42
2022-08-22T09:01:53.822Z,20.32
2022-08-22T09:05:19.572Z,20.49
2022-08-22T09:08:42.421Z,20.61
2022-08-22T09:12:02.611Z,20.77
2022-08-22T09:15:15.896Z,20.80
2022-08-22T09:18:37.955Z,20.88
2022-08-22T09:22:06.616Z,20.83
2022-08-22T09:25:25.673Z,20.90
2022-08-22T09:28:36.570Z,21.18
2022-08-22T09:31:51.998Z,21.23
2022-08-22T09:35:19.095Z,21.43
2022-08-22T09:38:54.538Z,21.67
2022-08-22T09:42:03.998Z,21.73
2022-08-22T09:45:47.104Z,21.64
2022-08-22T09:49:05.649Z,21.55
2022-08-22T09:52:33.143Z,21.61
2022-08-22T09:55:45.204Z,21.80
2022-08-22T09:58:56.074Z,21.90
2022-08-22T10:02:15.523Z,22.11
2022-08-22T10:05:40.893Z,22.24
2022-08-22T10:08:47.548Z,22.18
2022-08-22T10:11:55.845Z,22.55
2022-08-22T10:15:06.833Z,22.59
2022-08-22T10:18:16.318Z,22.54
2022-08-22T10:21:28.690Z,22.78
2022-08-22T10:24:43.830Z,23.04
2022-08-22T10:27:59.167Z,22.99
2022-08-22T10:31:08.617Z,23.08
2022-08-22T10:34:13.726Z,22.90
2022-08-22T10:37:23.868Z,22.63
2022-08-22T10:40:28.167Z,22.78
2022-08-22T10:43:40.791Z,22.95
2022-08-22T10:46:48.556Z,23.30
2022-08-22T10:49:52.121Z,23.45
2022-08-22T10:53:28.266Z,23.54
2022-08-22T10:56:34.401Z,23.85
2022-08-22T10:59:42.407Z,23.97
2022-08-22T11:02:53.130Z,24.07
2022-08-22T11:05:59.357Z,24.18
2022-08-22T11:09:10.800Z,24.26
2022-08-22T11:12:19.242Z,24.29
2022-08-22T11:15:41.921Z,24.13
2022-08-22T11:19:02.015Z,24.03
2022-08-22T11:22:10.403Z,24.27
2022-08-22T11:25:35.694Z,24.30
2022-08-22T11:28:56.942Z,24.31
2022-08-22T11:32:07.775Z,24.49
2022-08-22T11:35:17.014Z,24.66
2022-08-22T11:38:28.046Z,24.61
2022-08-22T11:41:39.449Z,24.51
2022-08-22T11:44:50.665Z,24.46
2022-08-22T11:47:59.833Z,24.41
2022-08-22T11:51:13.505Z,24.54
2022-08-22T11:54:20.980Z,24.78
2022-08-22T11:57:36.224Z,24.89
2022-08-22T12:00:43.801Z,25.04
2022-08-22T12:03:58.459Z,25.02
2022-08-22T12:07:07.781Z,24.67
2022-08-22T12:10:13.601Z,24.28
2022-08-22T12:13:34.090Z,24.13
2022-08-22T12:16:40.402Z,23.91
2022-08-22T12:20:14.965Z,23.82
2022-08-22T12:23:30.388Z,24.25
2022-08-22T12:26:52.940Z,24.45
2022-08-22T12:30:12.931Z,24.67
2022-08-22T12:36:58.431Z,25.10
2022-08-22T12:40:17.594Z,25.37
2022-08-22T12:43:26.851Z,25.47
2022-08-22T12:46:46.664Z,25.54
2022-08-22T12:50:02.719Z,25.48
2022-08-22T12:53:20.664Z,25.52
2022-08-22T12:56:30.123Z,25.68
2022-08-22T12:59:33.926Z,25.73
2022-08-22T13:02:39.932Z,25.88
2022-08-22T13:05:46.299Z,25.84
2022-08-22T13:09:02.247Z,25.83
2022-08-22T13:12:06.102Z,25.83
2022-08-22T13:15:13.888Z,25.88
2022-08-22T13:18:29.900Z,26.03
2022-08-22T13:21:36.334Z,25.70
2022-08-22T13:24:51.774Z,25.70
2022-08-22T13:27:56.546Z,25.82
2022-08-22T13:31:03.769Z,25.91
2022-08-22T13:34:13.308Z,26.02
2022-08-22T13:37:24.827Z,25.84
2022-08-22T13:40:29.376Z,26.04
2022-08-22T13:43:34.059Z,26.10
2022-08-22T13:46:44.506Z,26.10
2022-08-22T13:50:06.854Z,26.15
2022-08-22T13:53:20.637Z,26.06
2022-08-22T13:56:28.916Z,26.13
2022-08-22T13:59:50.338Z,26.29
2022-08-22T14:02:58.328Z,26.36
2022-08-22T14:06:36.798Z,26.38
2022-08-22T14:09:34.597Z,26.48
2022-08-22T14:12:50.709Z,26.48
2022-08-22T14:15:58.137Z,26.53
2022-08-22T14:19:06.235Z,26.45
2022-08-22T14:22:14.354Z,26.37
2022-08-22T14:25:18.541Z,26.01
2022-08-22T14:28:27.581Z,25.82
2022-08-22T14:31:30.047Z,25.66
2022-08-22T14:34:34.674Z,25.81
2022-08-22T14:37:40.143Z,26.00
2022-08-22T14:40:42.431Z,26.00
2022-08-22T14:43:50.054Z,25.78
2022-08-22T14:46:53.640Z,25.66
2022-08-22T14:49:58.024Z,25.78
2022-08-22T14:53:05.869Z,25.87
2022-08-22T14:56:11.019Z,25.80
2022-08-22T14:59:14.906Z,25.91
2022-08-22T15:02:25.597Z,25.71
2022-08-22T15:05:27.267Z,25.45
2022-08-22T15:08:32.663Z,25.30
2022-08-22T15:11:34.681Z,25.19
2022-08-22T15:14:44.712Z,25.14
2022-08-22T15:17:54.478Z,25.04
2022-08-22T15:21:01.304Z,25.03
2022-08-22T15:24:06.573Z,24.90
2022-08-22T15:27:08.636Z,24.79
2022-08-22T15:30:20.317Z,24.74
2022-08-22T15:33:24.290Z,24.70
2022-08-22T15:36:27.038Z,24.62
2022-08-22T15:39:34.157Z,24.57
2022-08-22T15:42:41.212Z,24.61
2022-08-22T15:45:45.572Z,24.69
2022-08-22T15:48:55.557Z,24.66
2022-08-22T15:52:08.884Z,24.55
2022-08-22T15:55:24.116Z,24.48
2022-08-22T15:58:27.172Z,24.41
2022-08-22T16:01:41.522Z,24.35
2022-08-22T16:04:49.578Z,24.28
2022-08-22T16:07:59.458Z,24.23
2022-08-22T16:11:21.828Z,24.24
2022-08-22T16:14:46.357Z,24.22
2022-08-22T16:17:53.410Z,24.23
2022-08-22T16:20:56.192Z,24.22
2022-08-22T16:24:16.165Z,24.18
2022-08-22T16:27:19.114Z,24.17
2022-08-22T16:30:32.439Z,24.21
2022-08-22T16:33:35.507Z,24.28
2022-08-22T16:36:39.898Z,24.22
2022-08-22T16:39:43.129Z,24.18
2022-08-22T16:42:46.779Z,24.10
2022-08-22T16:45:49.922Z,24.03
2022-08-22T16:48:59.147Z,23.95
2022-08-22T16:52:19.369Z,23.88
2022-08-22T16:55:39.679Z,23.83
2022-08-22T16:59:13.875Z,23.79
2022-08-22T17:02:27.820Z,23.74
2022-08-22T17:05:36.845Z,23.72
2022-08-22T17:08:45.974Z,23.65
2022-08-22T17:11:56.216Z,23.56
2022-08-22T17:15:04.306Z,23.49
2022-08-22T17:18:22.915Z,23.42
2022-08-22T17:21:26.822Z,23.34
2022-08-22T17:24:33.966Z,23.31
2022-08-22T17:27:41.723Z,23.25
2022-08-22T17:30:46.851Z,23.21
2022-08-22T17:34:10.396Z,23.18
2022-08-22T17:37:18.147Z,23.14
2022-08-22T17:40:28.339Z,23.11
2022-08-22T17:43:48.504Z,23.07
2022-08-22T17:46:52.603Z,23.02
2022-08-22T17:50:00.620Z,23.03
2022-08-22T17:53:05.439Z,23.04
2022-08-22T17:56:15.733Z,23.04
2022-08-22T17:59:21.142Z,23.04
2022-08-22T18:02:25.666Z,23.03
2022-08-22T18:05:31.667Z,23.07
2022-08-22T18:09:13.397Z,23.12
2022-08-22T18:12:01.287Z,23.11
2022-08-22T18:15:05.229Z,23.06
2022-08-22T18:18:09.409Z,23.03
2022-08-22T18:21:20.820Z,22.97
2022-08-22T18:24:25.242Z,22.90
2022-08-22T18:27:34.429Z,22.81
2022-08-22T18:30:48.244Z,22.75
2022-08-22T18:33:51.947Z,22.71
2022-08-22T18:37:01.652Z,22.67
2022-08-22T18:40:06.820Z,22.62
2022-08-22T18:43:14.178Z,22.55
2022-08-22T18:46:33.051Z,22.55
2022-08-22T18:49:41.984Z,22.58
2022-08-22T18:52:45.104Z,22.58
2022-08-22T18:55:50.548Z,22.54
2022-08-22T18:59:06.132Z,22.47
2022-08-22T19:02:20.669Z,22.43
2022-08-22T19:05:39.465Z,22.44
2022-08-22T19:09:01.675Z,22.45
2022-08-22T19:12:07.452Z,22.44
2022-08-22T19:15:27.464Z,22.38
2022-08-22T19:18:34.443Z,22.30
2022-08-22T19:21:55.600Z,22.26
2022-08-22T19:25:13.276Z,22.16
2022-08-22T19:28:25.275Z,22.12
2022-08-22T19:31:45.491Z,22.09
2022-08-22T19:34:47.887Z,22.05
2022-08-22T19:37:54.096Z,21.99
2022-08-22T19:40:58.450Z,21.98
2022-08-22T19:44:00.223Z,21.96
2022-08-22T19:47:04.935Z,21.96
2022-08-22T19:50:09.723Z,21.92
2022-08-22T19:53:20.524Z,21.89
2022-08-22T19:56:30.578Z,21.89
2022-08-22T19:59:40.004Z,21.91
2022-08-22T20:02:55.992Z,21.93
2022-08-22T20:06:05.270Z,21.96
2022-08-22T20:09:16.024Z,21.97
2022-08-22T20:12:22.604Z,21.96
2022-08-22T20:15:26.270Z,21.96
2022-08-22T20:18:48.730Z,21.95
2022-08-22T20:21:55.288Z,21.92
2022-08-22T20:24:58.543Z,21.90
2022-08-22T20:28:02.980Z,21.88
2022-08-22T20:31:06.530Z,21.85
2022-08-22T20:34:09.727Z,21.83
2022-08-22T20:37:29.591Z,21.80
2022-08-22T20:40:54.827Z,21.76
2022-08-22T20:44:02.476Z,21.75
2022-08-22T20:47:06.429Z,21.72
2022-08-22T20:50:10.335Z,21.70
2022-08-22T20:53:14.841Z,21.69
2022-08-22T20:56:18.972Z,21.69
2022-08-22T20:59:30.014Z,21.67
2022-08-22T21:02:35.533Z,21.64
2022-08-22T21:05:40.803Z,21.60
2022-08-22T21:08:43.432Z,21.59
2022-08-22T21:11:49.692Z,21.56
2022-08-22T21:14:52.700Z,21.53
2022-08-22T21:17:54.237Z,21.53
2022-08-22T21:21:07.107Z,21.51
2022-08-22T21:24:12.341Z,21.48
2022-08-22T21:27:20.605Z,21.45
2022-08-22T21:30:25.774Z,21.41
2022-08-22T21:33:27.592Z,21.36
2022-08-22T21:36:30.854Z,21.37
2022-08-22T21:39:34.705Z,21.34
2022-08-22T21:42:38.441Z,21.32
2022-08-22T21:45:42.483Z,21.30
2022-08-22T21:48:56.624Z,21.25
2022-08-22T21:51:58.115Z,21.22
2022-08-22T21:55:12.597Z,21.20
2022-08-22T21:58:36.941Z,21.19
2022-08-22T22:01:42.616Z,21.18
2022-08-22T22:04:44.447Z,21.16
2022-08-22T22:07:47.011Z,21.12
2022-08-22T22:10:49.544Z,21.08
2022-08-22T22:13:51.145Z,21.07
2022-08-22T22:16:54.603Z,21.04
2022-08-22T22:19:56.529Z,21.04
2022-08-22T22:23:00.284Z,21.04
2022-08-22T22:26:03.832Z,21.01
2022-08-22T22:29:05.861Z,21.02
2022-08-22T22:32:11.963Z,21.03
2022-08-22T22:35:14.132Z,21.01
2022-08-22T22:38:19.468Z,20.99
2022-08-22T22:41:25.943Z,21.01
2022-08-22T22:44:27.729Z,20.99
2022-08-22T22:47:31.682Z,20.99
2022-08-22T22:50:33.917Z,20.96
2022-08-22T22:53:40.449Z,20.93
2022-08-22T22:56:47.838Z,20.90
2022-08-22T22:59:50.000Z,20.87
2022-08-22T23:02:55.421Z,20.84
2022-08-22T23:06:05.679Z,20.81
2022-08-22T23:09:08.978Z,20.78
2022-08-22T23:12:11.226Z,20.77
2022-08-22T23:15:13.201Z,20.76
2022-08-22T23:18:30.116Z,20.72
2022-08-22T23:21:32.436Z,20.70
2022-08-22T23:24:35.135Z,20.68
2022-08-22T23:27:48.667Z,20.66
2022-08-22T23:31:08.297Z,20.65
2022-08-22T23:34:13.091Z,20.62
2022-08-22T23:37:16.218Z,20.59
2022-08-22T23:40:18.344Z,20.54
2022-08-22T23:43:20.153Z,20.54
2022-08-22T23:46:23.254Z,20.53
2022-08-22T23:49:27.630Z,20.48
2022-08-22T23:52:29.406Z,20.44
2022-08-22T23:55:31.287Z,20.43
2022-08-22T23:58:33.891Z,20.40
